Time;durP1;ratioP1;P1;durP2;ratioP2;P2;SDS_P1;SDS_P2;PMS_P1;PMS_P2;Temp;Humidity;BMP_temperature;BMP_pressure;BME280_temperature;BME280_humidity;BME280_pressure;Samples;Min_cycle;Max_cycle;Signal;HPM_P1;HPM_P2
2021/01/25 00:00:56;;;;;;;11.20;7.70;;;0.20;95.60;;;;;;5096509;28;20212;-70
2021/01/25 00:03:22;;;;;;;9.43;6.53;;;0.20;96.00;;;;;;5089319;28;20227;-71
2021/01/25 00:05:48;;;;;;;8.50;6.33;;;0.20;95.60;;;;;;5087025;28;20209;-69
2021/01/25 00:08:13;;;;;;;12.40;8.77;;;0.20;95.80;;;;;;5086847;28;20196;-70
2021/01/25 00:10:39;;;;;;;9.07;6.37;;;0.20;96.30;;;;;;5092461;28;20181;-69
2021/01/25 00:13:04;;;;;;;9.43;6.87;;;0.30;96.30;;;;;;5084494;28;20192;-71
2021/01/25 00:15:30;;;;;;;9.33;7.50;;;0.30;96.30;;;;;;5078441;28;20219;-70
2021/01/25 00:17:56;;;;;;;10.50;7.27;;;0.30;96.30;;;;;;5075496;28;20255;-69
2021/01/25 00:20:27;;;;;;;8.90;7.10;;;0.30;96.10;;;;;;5082961;28;20205;-70
2021/01/25 00:23:01;;;;;;;7.53;6.70;;;0.30;96.20;;;;;;5085453;28;20193;-70
2021/01/25 00:25:27;;;;;;;8.07;6.60;;;0.20;95.10;;;;;;5082129;28;20284;-70
2021/01/25 00:27:52;;;;;;;11.60;6.80;;;0.20;95.00;;;;;;5084495;28;20178;-70
2021/01/25 00:30:19;;;;;;;7.07;5.20;;;0.10;94.90;;;;;;5077937;28;20228;-69
2021/01/25 00:32:46;;;;;;;7.73;5.90;;;0.10;94.50;;;;;;5083026;28;20174;-69
2021/01/25 00:35:12;;;;;;;7.90;6.50;;;0.00;95.10;;;;;;5091068;28;20182;-71
2021/01/25 00:37:38;;;;;;;9.43;7.10;;;-0.10;96.10;;;;;;5097376;28;20177;-70
2021/01/25 00:40:05;;;;;;;7.30;6.40;;;-0.10;96.70;;;;;;5088051;28;20212;-70
2021/01/25 00:42:32;;;;;;;8.17;7.00;;;-0.10;97.10;;;;;;5088558;28;20186;-70
2021/01/25 00:44:58;;;;;;;8.47;6.53;;;-0.10;97.40;;;;;;5079504;28;20237;-69
2021/01/25 00:47:24;;;;;;;9.03;7.33;;;-0.20;97.70;;;;;;5084486;28;20259;-70
2021/01/25 00:49:49;;;;;;;10.67;7.87;;;-0.20;98.00;;;;;;5091883;28;20204;-70
2021/01/25 00:52:15;;;;;;;10.87;7.43;;;-0.20;97.90;;;;;;5083210;28;20233;-70
2021/01/25 00:54:40;;;;;;;11.60;8.23;;;-0.30;97.80;;;;;;5080728;28;20186;-70
2021/01/25 00:57:06;;;;;;;12.40;8.10;;;-0.20;98.00;;;;;;5090216;28;20219;-70
2021/01/25 00:59:31;;;;;;;8.67;7.43;;;-0.20;97.60;;;;;;5090965;28;20210;-70
2021/01/25 01:01:57;;;;;;;9.30;7.27;;;-0.20;97.10;;;;;;5092645;28;20718;-70
2021/01/25 01:04:22;;;;;;;11.90;7.37;;;-0.20;97.30;;;;;;5091581;28;20209;-69
2021/01/25 01:06:48;;;;;;;9.60;7.87;;;-0.20;97.40;;;;;;5092907;28;20199;-68
2021/01/25 01:09:14;;;;;;;10.57;7.97;;;-0.20;97.20;;;;;;5084400;28;20217;-70
2021/01/25 01:11:40;;;;;;;10.63;7.23;;;-0.20;97.00;;;;;;5077246;28;20189;-69
2021/01/25 01:14:05;;;;;;;8.77;6.80;;;-0.20;97.00;;;;;;5078635;28;20210;-69
2021/01/25 01:16:31;;;;;;;9.43;7.30;;;-0.20;97.20;;;;;;5081994;28;20202;-71
2021/01/25 01:18:56;;;;;;;8.77;6.97;;;-0.20;97.10;;;;;;5081235;28;20737;-69
2021/01/25 01:21:22;;;;;;;7.40;6.70;;;-0.10;97.40;;;;;;5083045;28;20205;-69
2021/01/25 01:23:48;;;;;;;11.33;8.13;;;-0.10;97.60;;;;;;5075349;28;21007;-69
2021/01/25 01:26:13;;;;;;;11.97;8.17;;;0.00;97.30;;;;;;5080923;28;20218;-69
2021/01/25 01:28:39;;;;;;;12.47;7.90;;;0.00;97.30;;;;;;5086503;28;20276;-69
2021/01/25 01:31:05;;;;;;;10.90;8.10;;;0.10;97.30;;;;;;5084084;28;20596;-69
2021/01/25 01:33:30;;;;;;;10.80;7.83;;;0.10;97.00;;;;;;5083793;28;20177;-69
2021/01/25 01:35:56;;;;;;;9.90;8.03;;;0.10;97.10;;;;;;5084435;28;20196;-69
2021/01/25 01:38:22;;;;;;;10.63;7.40;;;0.10;97.00;;;;;;5079289;28;20210;-68
2021/01/25 01:40:47;;;;;;;10.37;7.03;;;0.10;97.20;;;;;;5089631;28;20275;-70
2021/01/25 01:43:13;;;;;;;13.67;8.67;;;0.10;96.70;;;;;;5078351;28;20192;-68
2021/01/25 01:45:38;;;;;;;11.23;7.57;;;0.10;96.80;;;;;;5078922;28;20708;-69
2021/01/25 01:48:05;;;;;;;8.53;6.60;;;0.20;96.80;;;;;;5084966;28;20677;-69
2021/01/25 01:50:31;;;;;;;9.40;7.27;;;0.10;96.60;;;;;;5081868;28;20854;-70
2021/01/25 01:52:56;;;;;;;9.80;6.50;;;0.10;96.70;;;;;;5084764;28;20179;-70
2021/01/25 01:55:23;;;;;;;9.10;6.57;;;0.10;96.80;;;;;;5081250;28;20201;-70
2021/01/25 01:57:53;;;;;;;10.00;7.10;;;0.00;97.00;;;;;;5080990;28;20648;-68
2021/01/25 02:00:20;;;;;;;10.83;7.17;;;0.00;97.40;;;;;;5078915;28;20198;-69
2021/01/25 02:02:46;;;;;;;9.37;6.83;;;0.00;97.60;;;;;;5079818;28;20550;-71
2021/01/25 02:05:13;;;;;;;8.10;6.60;;;0.00;97.70;;;;;;5076017;28;20201;-70
2021/01/25 02:07:50;;;;;;;8.80;7.00;;;0.00;97.60;;;;;;5082156;28;20175;-71
2021/01/25 02:10:18;;;;;;;7.23;6.43;;;0.00;97.90;;;;;;5080346;28;20578;-70
2021/01/25 02:12:46;;;;;;;7.20;6.50;;;0.10;97.80;;;;;;5077481;28;20223;-69
2021/01/25 02:15:12;;;;;;;7.50;6.70;;;0.10;97.70;;;;;;5074946;28;20215;-70
2021/01/25 02:17:38;;;;;;;9.90;6.23;;;0.10;97.50;;;;;;5075208;28;20201;-69
2021/01/25 02:20:07;;;;;;;7.40;6.53;;;0.20;97.50;;;;;;5081073;28;20582;-69
2021/01/25 02:22:35;;;;;;;7.30;6.53;;;0.20;97.30;;;;;;5081702;28;20189;-69
2021/01/25 02:25:29;;;;;;;7.13;5.80;;;0.20;97.30;;;;;;5082806;28;20210;-71
2021/01/25 02:27:55;;;;;;;7.27;6.20;;;0.20;97.40;;;;;;5078237;28;20178;-69
2021/01/25 02:30:21;;;;;;;7.13;6.43;;;0.30;97.70;;;;;;5077256;28;20274;-69
2021/01/25 02:32:48;;;;;;;6.23;5.63;;;0.30;97.40;;;;;;5083880;28;20183;-68
2021/01/25 02:35:16;;;;;;;8.63;6.33;;;0.30;97.40;;;;;;5085665;28;20189;-70
2021/01/25 02:37:45;;;;;;;8.77;5.53;;;0.30;97.60;;;;;;5085190;28;20217;-71
2021/01/25 02:40:13;;;;;;;4.80;4.40;;;0.40;97.50;;;;;;5083051;28;20189;-69
2021/01/25 02:42:40;;;;;;;6.63;4.43;;;0.40;97.40;;;;;;5076633;28;20175;-70
2021/01/25 02:45:07;;;;;;;5.10;3.70;;;0.40;97.60;;;;;;5084359;28;20872;-70
2021/01/25 02:47:34;;;;;;;4.67;3.47;;;0.40;97.20;;;;;;5088442;28;20563;-70
2021/01/25 02:50:00;;;;;;;4.13;3.47;;;0.40;96.90;;;;;;5088683;28;20207;-70
2021/01/25 02:52:25;;;;;;;4.00;3.60;;;0.40;96.70;;;;;;5081990;28;20174;-70
2021/01/25 02:54:51;;;;;;;3.80;3.40;;;0.50;96.70;;;;;;5088192;28;20186;-71
2021/01/25 02:57:19;;;;;;;4.17;3.47;;;0.50;96.50;;;;;;5088204;28;20266;-71
2021/01/25 02:59:47;;;;;;;4.67;3.57;;;0.60;96.60;;;;;;5079509;28;20231;-71
2021/01/25 03:02:14;;;;;;;4.20;3.80;;;0.60;96.80;;;;;;5079122;28;20783;-70
2021/01/25 03:04:41;;;;;;;4.63;3.53;;;0.70;97.10;;;;;;5075692;28;20192;-70
2021/01/25 03:07:06;;;;;;;5.33;4.47;;;0.70;96.60;;;;;;5079338;28;20185;-69
2021/01/25 03:09:33;;;;;;;6.83;4.20;;;0.70;96.00;;;;;;5085417;28;20400;-70
2021/01/25 03:12:01;;;;;;;4.83;3.83;;;0.70;96.40;;;;;;5076477;28;20206;-70
2021/01/25 03:14:27;;;;;;;4.90;3.90;;;0.70;97.20;;;;;;5078087;28;20543;-70
2021/01/25 03:16:53;;;;;;;4.93;4.10;;;0.70;97.50;;;;;;5076689;28;20187;-70
2021/01/25 03:19:18;;;;;;;9.53;4.60;;;0.70;97.40;;;;;;5086346;28;20626;-69
2021/01/25 03:21:51;;;;;;;4.70;4.30;;;0.60;97.90;;;;;;5084218;28;20196;-69
2021/01/25 03:24:17;;;;;;;6.03;5.20;;;0.50;97.90;;;;;;5085720;28;20185;-70
2021/01/25 03:26:43;;;;;;;6.13;4.40;;;0.50;98.50;;;;;;5077145;28;20195;-69
2021/01/25 03:29:09;;;;;;;6.53;4.77;;;0.40;98.90;;;;;;5082657;28;20201;-69
2021/01/25 03:31:35;;;;;;;6.67;4.70;;;0.40;99.50;;;;;;5076604;28;20210;-69
2021/01/25 03:34:02;;;;;;;5.73;5.00;;;0.30;99.80;;;;;;5078890;28;20309;-69
2021/01/25 03:36:29;;;;;;;5.07;4.57;;;0.30;99.90;;;;;;5077461;28;20205;-70
2021/01/25 03:38:55;;;;;;;6.30;5.37;;;0.20;99.90;;;;;;5079615;28;20723;-70
2021/01/25 03:41:21;;;;;;;5.90;5.00;;;0.10;99.90;;;;;;5082325;28;20251;-70
2021/01/25 03:43:46;;;;;;;6.83;5.23;;;0.00;99.90;;;;;;5079309;28;20262;-69
2021/01/25 03:46:12;;;;;;;5.80;5.30;;;0.00;99.90;;;;;;5081772;28;20219;-68
2021/01/25 03:48:37;;;;;;;7.23;6.33;;;0.00;99.90;;;;;;5082289;28;20675;-71
2021/01/25 03:51:03;;;;;;;7.83;5.97;;;-0.10;99.90;;;;;;5084296;28;20200;-71
2021/01/25 03:53:29;;;;;;;10.10;6.33;;;-0.10;99.90;;;;;;5081470;28;20707;-71
2021/01/25 03:55:55;;;;;;;7.10;6.40;;;-0.10;99.90;;;;;;5078061;28;20211;-69
2021/01/25 03:58:20;;;;;;;8.23;6.60;;;-0.10;99.90;;;;;;5078791;28;20229;-71
2021/01/25 04:00:46;;;;;;;8.97;7.87;;;-0.10;99.90;;;;;;5081081;28;20561;-71
2021/01/25 04:03:11;;;;;;;9.40;7.17;;;-0.10;99.90;;;;;;5080947;28;20183;-71
2021/01/25 04:05:37;;;;;;;9.00;7.47;;;-0.10;99.90;;;;;;5083815;28;20209;-71
2021/01/25 04:08:03;;;;;;;8.23;7.13;;;-0.10;99.90;;;;;;5083189;28;20209;-70
2021/01/25 04:10:28;;;;;;;10.17;7.07;;;-0.10;99.90;;;;;;5084378;28;20204;-71
2021/01/25 04:12:54;;;;;;;10.73;8.37;;;0.00;99.90;;;;;;5082638;28;20685;-69
2021/01/25 04:15:19;;;;;;;9.10;8.20;;;0.00;99.90;;;;;;5069891;28;20181;-71
2021/01/25 04:17:45;;;;;;;8.30;7.23;;;0.00;99.90;;;;;;5078499;28;20716;-70
2021/01/25 04:20:11;;;;;;;7.83;7.10;;;0.10;99.90;;;;;;5078830;28;20193;-71
2021/01/25 04:22:37;;;;;;;7.93;7.13;;;0.10;99.90;;;;;;5071415;28;20224;-69
2021/01/25 04:25:04;;;;;;;8.60;7.53;;;0.10;99.90;;;;;;5075920;28;20906;-69
2021/01/25 04:27:30;;;;;;;8.43;7.43;;;0.10;99.90;;;;;;5080802;28;20186;-71
2021/01/25 04:29:55;;;;;;;10.60;7.47;;;0.10;99.90;;;;;;5083277;28;20243;-70
2021/01/25 04:32:22;;;;;;;8.43;7.40;;;0.10;99.90;;;;;;5081458;28;20288;-71
2021/01/25 04:34:48;;;;;;;8.97;8.07;;;0.10;99.90;;;;;;5080655;28;20256;-69
2021/01/25 04:37:14;;;;;;;8.87;7.97;;;0.10;99.90;;;;;;5087601;28;20186;-70
2021/01/25 04:39:39;;;;;;;8.67;7.87;;;0.10;99.90;;;;;;5083381;28;20202;-69
2021/01/25 04:42:05;;;;;;;8.53;7.73;;;0.20;99.90;;;;;;5079430;28;20191;-69
2021/01/25 04:44:32;;;;;;;8.33;7.53;;;0.20;99.90;;;;;;5088412;28;20300;-69
2021/01/25 04:47:00;;;;;;;10.20;8.57;;;0.20;99.90;;;;;;5081998;28;20183;-69
2021/01/25 04:49:28;;;;;;;9.63;8.63;;;0.10;99.90;;;;;;5087546;28;20205;-69
2021/01/25 04:51:54;;;;;;;9.97;8.50;;;0.20;99.90;;;;;;5077301;28;20278;-69
2021/01/25 04:54:20;;;;;;;10.00;9.00;;;0.20;99.90;;;;;;5078963;28;20284;-68
2021/01/25 04:56:46;;;;;;;10.07;9.03;;;0.20;99.90;;;;;;5082677;28;20680;-68
2021/01/25 04:59:13;;;;;;;9.10;8.20;;;0.20;99.90;;;;;;5073803;28;20740;-70
2021/01/25 05:01:39;;;;;;;8.73;7.83;;;0.20;99.90;;;;;;5083544;28;20185;-71
2021/01/25 05:04:04;;;;;;;11.03;8.03;;;0.20;99.90;;;;;;5074557;28;20186;-70
2021/01/25 05:06:30;;;;;;;9.60;8.10;;;0.20;99.90;;;;;;5086267;28;20210;-70
2021/01/25 05:08:56;;;;;;;10.83;8.33;;;0.20;99.90;;;;;;5082962;28;20198;-70
2021/01/25 05:11:21;;;;;;;9.50;8.60;;;0.30;99.90;;;;;;5078843;28;20264;-69
2021/01/25 05:13:47;;;;;;;9.97;8.97;;;0.30;99.90;;;;;;5084319;28;20168;-71
2021/01/25 05:16:21;;;;;;;9.17;8.17;;;0.30;99.90;;;;;;5080166;28;20290;-69
2021/01/25 05:19:07;;;;;;;9.00;8.10;;;0.30;99.90;;;;;;5087328;28;20203;-70
2021/01/25 05:21:40;;;;;;;8.30;7.50;;;0.30;99.90;;;;;;5088995;28;20267;-71
2021/01/25 05:24:07;;;;;;;9.77;8.30;;;0.30;99.90;;;;;;5098077;28;20186;-71
2021/01/25 05:26:35;;;;;;;10.13;9.23;;;0.30;99.90;;;;;;5086261;28;20213;-69
2021/01/25 05:29:01;;;;;;;10.17;9.07;;;0.30;99.90;;;;;;5076889;28;20255;-70
2021/01/25 05:31:27;;;;;;;12.30;9.47;;;0.30;99.90;;;;;;5082740;28;20680;-70
2021/01/25 05:33:53;;;;;;;11.77;8.40;;;0.30;99.90;;;;;;5076828;28;20174;-70
2021/01/25 05:36:28;;;;;;;9.60;8.00;;;0.30;99.90;;;;;;5077476;28;20179;-68
2021/01/25 05:38:54;;;;;;;11.27;9.57;;;0.30;99.90;;;;;;5078389;28;20213;-70
2021/01/25 05:41:20;;;;;;;10.70;9.63;;;0.30;99.90;;;;;;5083390;28;20179;-70
2021/01/25 05:43:47;;;;;;;9.60;8.57;;;0.30;99.90;;;;;;5084300;28;20204;-70
2021/01/25 05:46:15;;;;;;;12.00;9.67;;;0.40;99.90;;;;;;5087260;28;20297;-69
2021/01/25 05:48:41;;;;;;;10.33;8.60;;;0.40;99.90;;;;;;5085541;28;20202;-69
2021/01/25 05:51:15;;;;;;;10.47;9.47;;;0.30;99.90;;;;;;5083677;28;20293;-68
2021/01/25 05:53:43;;;;;;;10.93;9.60;;;0.30;99.90;;;;;;5081648;28;20172;-68
2021/01/25 05:56:15;;;;;;;13.80;9.77;;;0.30;99.90;;;;;;5075623;28;20193;-70
2021/01/25 05:58:41;;;;;;;9.60;8.60;;;0.40;99.90;;;;;;5081834;28;20201;-70
2021/01/25 06:01:08;;;;;;;9.87;8.87;;;0.40;99.90;;;;;;5085056;28;20219;-69
2021/01/25 06:03:38;;;;;;;10.17;8.37;;;0.30;99.90;;;;;;5085120;28;20176;-70
2021/01/25 06:06:09;;;;;;;10.60;8.37;;;0.30;99.90;;;;;;5081933;28;20202;-70
2021/01/25 06:08:40;;;;;;;12.77;9.17;;;0.30;99.90;;;;;;5083351;28;20288;-68
2021/01/25 06:11:29;;;;;;;10.13;8.90;;;0.30;99.90;;;;;;5079982;28;20707;-69
2021/01/25 06:13:55;;;;;;;11.67;9.27;;;0.40;99.90;;;;;;5078090;28;20259;-72
2021/01/25 06:16:22;;;;;;;16.23;10.60;;;0.50;99.90;;;;;;5085815;28;20276;-69
2021/01/25 06:18:48;;;;;;;11.77;9.40;;;0.50;99.90;;;;;;5078916;28;20205;-69
2021/01/25 06:21:25;;;;;;;12.20;9.80;;;0.50;99.90;;;;;;5083121;28;20196;-69
2021/01/25 06:23:53;;;;;;;12.57;9.80;;;0.50;99.90;;;;;;5083346;28;20186;-69
2021/01/25 06:26:20;;;;;;;12.87;9.87;;;0.40;99.90;;;;;;5083842;28;20281;-71
2021/01/25 06:28:49;;;;;;;12.80;9.33;;;0.40;99.90;;;;;;5079337;28;20220;-71
2021/01/25 06:31:17;;;;;;;13.67;10.70;;;0.30;99.90;;;;;;5079033;28;20654;-70
2021/01/25 06:33:48;;;;;;;11.47;10.20;;;0.30;99.90;;;;;;5075721;28;20183;-72
2021/01/25 06:36:18;;;;;;;13.77;10.43;;;0.30;99.90;;;;;;5073009;28;20276;-70
2021/01/25 06:38:47;;;;;;;12.20;10.03;;;0.30;99.90;;;;;;5085071;28;20196;-70
2021/01/25 06:41:14;;;;;;;11.33;10.00;;;0.20;99.90;;;;;;5078775;28;20456;-71
2021/01/25 06:43:42;;;;;;;11.27;10.10;;;0.20;99.90;;;;;;5076069;28;20200;-70
2021/01/25 06:46:08;;;;;;;11.60;10.10;;;0.10;99.90;;;;;;5084237;28;20223;-72
2021/01/25 06:48:35;;;;;;;10.97;9.50;;;0.10;99.90;;;;;;5082601;28;20224;-70
2021/01/25 06:51:02;;;;;;;9.67;7.17;;;0.00;99.90;;;;;;5076288;28;20174;-70
2021/01/25 06:53:30;;;;;;;13.03;8.23;;;-0.10;99.90;;;;;;5080525;28;20182;-70
2021/01/25 06:56:00;;;;;;;10.40;7.57;;;-0.10;99.90;;;;;;5086978;28;20339;-70
2021/01/25 06:58:30;;;;;;;12.40;7.53;;;-0.10;99.90;;;;;;5082480;28;20284;-71
2021/01/25 07:01:04;;;;;;;9.10;6.60;;;-0.10;99.90;;;;;;5084943;28;20723;-71
2021/01/25 07:03:50;;;;;;;9.77;6.80;;;-0.10;99.90;;;;;;5078455;28;20181;-70
2021/01/25 07:06:16;;;;;;;11.50;7.33;;;-0.10;99.90;;;;;;5091773;28;20208;-71
2021/01/25 07:08:56;;;;;;;13.50;8.20;;;-0.10;99.90;;;;;;5095898;28;20203;-70
2021/01/25 07:11:25;;;;;;;13.40;8.73;;;0.00;99.90;;;;;;5096529;28;20815;-70
2021/01/25 07:13:52;;;;;;;18.33;11.93;;;0.10;99.90;;;;;;5089742;28;20184;-70
2021/01/25 07:16:18;;;;;;;14.03;10.43;;;0.10;99.90;;;;;;5092544;28;20266;-71
2021/01/25 07:18:43;;;;;;;12.37;8.67;;;0.20;99.90;;;;;;5101104;28;20726;-69
2021/01/25 07:21:13;;;;;;;11.33;7.30;;;0.30;99.90;;;;;;5091700;28;20197;-69
2021/01/25 07:23:43;;;;;;;12.53;7.83;;;0.40;99.90;;;;;;5086798;28;20235;-72
2021/01/25 07:26:14;;;;;;;12.30;7.87;;;0.40;99.90;;;;;;5088314;28;20218;-70
2021/01/25 07:28:40;;;;;;;15.53;7.60;;;0.50;99.90;;;;;;5089989;28;20224;-70
2021/01/25 07:31:07;;;;;;;20.33;8.17;;;0.50;99.90;;;;;;5102436;28;20205;-71
2021/01/25 07:33:32;;;;;;;14.07;7.73;;;0.50;99.90;;;;;;5090557;28;20375;-70
2021/01/25 07:35:58;;;;;;;15.23;7.43;;;0.60;99.90;;;;;;5092124;28;20209;-73
2021/01/25 07:38:27;;;;;;;12.77;8.03;;;0.60;99.90;;;;;;5089257;28;20214;-71
2021/01/25 07:40:57;;;;;;;11.67;7.77;;;0.60;99.90;;;;;;5089499;28;20191;-70
2021/01/25 07:43:28;;;;;;;18.63;9.07;;;0.70;99.90;;;;;;5093351;28;20186;-70
2021/01/25 07:46:06;;;;;;;13.83;8.33;;;0.70;99.90;;;;;;5081466;28;20217;-70
2021/01/25 07:48:32;;;;;;;12.60;8.13;;;0.80;99.90;;;;;;5085323;28;20217;-69
2021/01/25 07:50:58;;;;;;;13.83;9.43;;;0.90;99.90;;;;;;5084130;28;20186;-71
2021/01/25 07:53:24;;;;;;;14.83;10.17;;;0.90;99.90;;;;;;5083032;28;20200;-70
2021/01/25 07:55:50;;;;;;;13.43;9.67;;;1.00;99.90;;;;;;5085013;28;20182;-69
2021/01/25 07:58:16;;;;;;;16.87;9.93;;;1.10;99.90;;;;;;5094996;28;20637;-69
2021/01/25 08:00:42;;;;;;;15.00;6.43;;;1.20;99.90;;;;;;5093798;28;20186;-69
2021/01/25 08:03:16;;;;;;;13.63;6.80;;;1.20;99.90;;;;;;5087189;28;20239;-70
2021/01/25 08:05:43;;;;;;;11.80;6.40;;;1.10;99.90;;;;;;5078990;28;20298;-70
2021/01/25 08:08:11;;;;;;;13.67;6.67;;;1.10;99.90;;;;;;5076151;28;20619;-72
2021/01/25 08:10:37;;;;;;;14.70;7.37;;;1.20;99.90;;;;;;5080811;28;20178;-70
2021/01/25 08:13:52;;;;;;;8.80;6.97;;;1.10;99.90;;;;;;5079951;28;20222;-70
2021/01/25 08:16:22;;;;;;;8.77;6.37;;;1.30;99.90;;;;;;5075055;28;20252;-70
2021/01/25 08:19:04;;;;;;;11.07;5.40;;;1.30;99.90;;;;;;5075725;28;20208;-70
2021/01/25 08:21:35;;;;;;;7.43;5.80;;;1.40;99.90;;;;;;5078557;28;20201;-70
2021/01/25 08:24:04;;;;;;;8.43;5.97;;;1.40;99.90;;;;;;5072307;28;20708;-71
2021/01/25 08:26:30;;;;;;;6.87;5.13;;;1.30;99.90;;;;;;5078488;28;20270;-72
2021/01/25 08:29:14;;;;;;;7.80;6.00;;;1.20;99.90;;;;;;5081206;28;20728;-71
2021/01/25 08:31:44;;;;;;;9.13;6.23;;;1.20;99.90;;;;;;5080802;28;20182;-71
2021/01/25 08:34:31;;;;;;;11.87;8.50;;;1.20;99.90;;;;;;5078638;28;20189;-71
2021/01/25 08:37:11;;;;;;;10.63;8.53;;;1.20;99.90;;;;;;5083655;28;20637;-70
2021/01/25 08:39:54;;;;;;;9.73;8.40;;;1.20;99.90;;;;;;5083174;28;20209;-70
2021/01/25 08:42:31;;;;;;;12.73;8.53;;;1.30;99.90;;;;;;5082498;28;20186;-70
2021/01/25 08:45:25;;;;;;;7.80;5.60;;;1.50;99.90;;;;;;5082653;28;20214;-70
2021/01/25 08:47:50;;;;;;;8.23;5.30;;;1.70;99.90;;;;;;5078958;28;20226;-70
2021/01/25 08:50:23;;;;;;;6.10;5.50;;;2.00;99.90;;;;;;5075768;28;20277;-73
2021/01/25 08:53:04;;;;;;;5.03;4.63;;;2.20;99.90;;;;;;5085736;28;20184;-70
2021/01/25 08:55:40;;;;;;;7.50;4.83;;;2.40;99.90;;;;;;5078930;28;20182;-71
2021/01/25 08:58:27;;;;;;;6.15;5.35;;;2.50;99.90;;;;;;5079523;28;20420;-71
2021/01/25 09:00:53;;;;;;;6.67;6.07;;;2.50;99.90;;;;;;5094787;28;20187;-72
2021/01/25 09:03:19;;;;;;;6.93;5.27;;;2.50;99.90;;;;;;5082336;28;20202;-71
2021/01/25 09:05:46;;;;;;;6.67;6.07;;;2.50;99.90;;;;;;5082670;28;20236;-71
2021/01/25 09:08:12;;;;;;;7.73;5.80;;;2.50;99.90;;;;;;5084415;28;20196;-71
2021/01/25 09:10:37;;;;;;;5.53;5.03;;;2.50;99.90;;;;;;5077922;28;20175;-71
2021/01/25 09:13:04;;;;;;;7.57;5.43;;;2.40;99.90;;;;;;5092019;28;20195;-71
2021/01/25 09:15:29;;;;;;;6.83;5.73;;;2.40;99.90;;;;;;5079918;28;20189;-71
2021/01/25 09:17:56;;;;;;;6.17;5.57;;;2.30;99.90;;;;;;5084466;28;20592;-71
2021/01/25 09:20:22;;;;;;;7.03;5.10;;;2.40;99.90;;;;;;5083263;28;20682;-71
2021/01/25 09:22:48;;;;;;;6.87;4.90;;;2.50;99.90;;;;;;5083755;28;20190;-69
2021/01/25 09:25:16;;;;;;;6.40;4.83;;;2.60;99.90;;;;;;5086155;28;20853;-70
2021/01/25 09:27:42;;;;;;;5.77;5.27;;;2.60;99.90;;;;;;5080510;28;20190;-70
2021/01/25 09:30:10;;;;;;;7.60;4.90;;;2.70;99.90;;;;;;5076769;28;20203;-70
2021/01/25 09:32:36;;;;;;;6.57;4.87;;;2.90;99.80;;;;;;5077389;28;20238;-71
2021/01/25 09:35:03;;;;;;;11.17;5.33;;;3.00;99.50;;;;;;5076672;28;20193;-71
2021/01/25 09:37:28;;;;;;;7.33;5.20;;;3.00;99.30;;;;;;5082972;28;20651;-71
2021/01/25 09:39:54;;;;;;;7.07;4.97;;;3.00;99.50;;;;;;5081738;28;20211;-71
2021/01/25 09:42:20;;;;;;;8.27;5.43;;;3.00;99.40;;;;;;5080165;28;20752;-70
2021/01/25 09:44:45;;;;;;;9.60;5.87;;;3.00;99.40;;;;;;5081333;28;20189;-71
2021/01/25 09:47:11;;;;;;;8.00;5.50;;;3.10;99.60;;;;;;5073919;28;20281;-70
2021/01/25 09:49:36;;;;;;;8.57;5.50;;;3.20;99.30;;;;;;5087846;28;20274;-70
2021/01/25 09:52:03;;;;;;;6.97;5.40;;;3.10;99.10;;;;;;5086203;28;20644;-68
2021/01/25 09:54:28;;;;;;;6.43;4.97;;;3.10;99.10;;;;;;5094599;28;20185;-69
2021/01/25 09:56:54;;;;;;;9.10;5.33;;;3.00;99.20;;;;;;5091256;28;20190;-70
2021/01/25 09:59:20;;;;;;;6.63;5.90;;;2.80;99.90;;;;;;5085200;28;20274;-70
2021/01/25 10:01:46;;;;;;;8.27;5.10;;;2.90;99.90;;;;;;5092958;28;20246;-68
2021/01/25 10:04:12;;;;;;;7.93;5.77;;;3.00;99.70;;;;;;5079782;28;20274;-70
2021/01/25 10:06:37;;;;;;;9.50;4.40;;;3.00;99.90;;;;;;5084298;28;20591;-69
2021/01/25 10:09:04;;;;;;;6.97;4.80;;;3.10;99.10;;;;;;5075737;28;20205;-70
2021/01/25 10:11:30;;;;;;;5.10;3.60;;;3.10;99.50;;;;;;5077562;28;20190;-70
2021/01/25 10:13:56;;;;;;;5.47;4.53;;;3.20;99.00;;;;;;5080016;28;20188;-68
2021/01/25 10:16:22;;;;;;;5.50;4.40;;;3.40;98.90;;;;;;5084342;28;20202;-69
2021/01/25 10:18:49;;;;;;;4.50;4.10;;;3.50;98.80;;;;;;5081724;28;20215;-70
2021/01/25 10:21:16;;;;;;;4.40;4.00;;;3.50;98.00;;;;;;5079393;28;20714;-70
2021/01/25 10:23:43;;;;;;;6.60;4.10;;;3.50;98.30;;;;;;5078624;28;20191;-70
2021/01/25 10:26:09;;;;;;;4.93;4.43;;;3.60;97.60;;;;;;5074049;28;20201;-69
2021/01/25 10:28:34;;;;;;;6.17;4.37;;;3.80;97.60;;;;;;5084929;28;20206;-71
2021/01/25 10:31:00;;;;;;;5.30;3.83;;;3.90;97.30;;;;;;5077089;28;20168;-71
2021/01/25 10:33:25;;;;;;;5.13;4.10;;;4.20;98.00;;;;;;5075623;28;20936;-69
2021/01/25 10:35:51;;;;;;;4.05;3.40;;;4.50;95.80;;;;;;5083343;28;20482;-71
2021/01/25 10:38:17;;;;;;;3.67;3.30;;;4.40;95.40;;;;;;5079787;28;20212;-70
2021/01/25 10:40:42;;;;;;;3.97;3.50;;;4.30;96.10;;;;;;5074220;28;20177;-69
2021/01/25 10:43:08;;;;;;;4.03;3.67;;;4.00;96.50;;;;;;5076091;28;20182;-71
2021/01/25 10:45:34;;;;;;;4.40;4.00;;;3.80;97.30;;;;;;5080327;28;20636;-70
2021/01/25 10:48:00;;;;;;;5.32;4.82;;;3.60;97.90;;;;;;5078457;28;20417;-69
2021/01/25 10:50:26;;;;;;;5.63;4.53;;;3.30;98.90;;;;;;5084279;28;20197;-71
2021/01/25 10:52:51;;;;;;;4.80;4.40;;;3.20;99.50;;;;;;5087164;28;20314;-70
2021/01/25 10:55:18;;;;;;;5.07;4.40;;;3.30;99.30;;;;;;5081427;28;20210;-69
2021/01/25 10:57:44;;;;;;;5.23;4.57;;;3.20;99.60;;;;;;5090600;28;20191;-69
2021/01/25 11:00:18;;;;;;;5.57;4.97;;;3.20;99.60;;;;;;5095486;28;20623;-69
2021/01/25 11:02:44;;;;;;;4.97;4.57;;;3.20;99.70;;;;;;5077024;28;20182;-70
2021/01/25 11:05:13;;;;;;;5.40;4.90;;;3.20;99.90;;;;;;5083216;28;20195;-69
2021/01/25 11:07:39;;;;;;;4.50;4.10;;;3.50;99.80;;;;;;5081406;28;20209;-69
2021/01/25 11:10:07;;;;;;;7.80;4.63;;;3.50;99.10;;;;;;5078265;28;20287;-69
2021/01/25 11:12:33;;;;;;;6.87;5.50;;;3.60;99.50;;;;;;5081444;28;20609;-70
2021/01/25 11:14:58;;;;;;;6.57;4.90;;;3.60;99.60;;;;;;5076175;28;20168;-71
2021/01/25 11:17:25;;;;;;;4.63;4.10;;;3.70;99.00;;;;;;5078418;28;20260;-70
2021/01/25 11:19:51;;;;;;;7.17;5.20;;;3.60;98.50;;;;;;5076058;28;20184;-69
2021/01/25 11:22:23;;;;;;;5.87;4.60;;;3.60;99.10;;;;;;5087478;27;20602;-67
2021/01/25 11:24:48;;;;;;;44.87;17.97;;;3.60;99.30;;;;;;5087409;28;20650;-69
2021/01/25 11:27:16;;;;;;;13.03;6.90;;;3.80;99.60;;;;;;5082878;28;20355;-70
2021/01/25 11:29:42;;;;;;;13.00;7.03;;;4.00;99.00;;;;;;5089210;28;20211;-69
2021/01/25 11:32:07;;;;;;;12.90;7.30;;;4.20;98.60;;;;;;5083083;28;21641;-69
2021/01/25 11:34:33;;;;;;;6.23;5.10;;;4.20;98.40;;;;;;5078154;28;20638;-69
2021/01/25 11:36:59;;;;;;;6.47;4.47;;;4.20;98.00;;;;;;5081703;28;20531;-69
2021/01/25 11:39:27;;;;;;;6.70;5.33;;;4.30;97.90;;;;;;5077675;28;20206;-69
2021/01/25 11:41:52;;;;;;;6.60;5.67;;;4.20;97.80;;;;;;5087101;28;20303;-70
2021/01/25 11:44:18;;;;;;;7.30;5.40;;;4.40;98.10;;;;;;5075353;28;20271;-71
2021/01/25 11:46:44;;;;;;;8.30;4.83;;;4.40;97.10;;;;;;5099273;28;20189;-71
2021/01/25 11:49:09;;;;;;;5.10;4.60;;;4.40;96.70;;;;;;5093888;28;20202;-70
2021/01/25 11:51:35;;;;;;;5.47;4.87;;;4.20;97.20;;;;;;5097778;28;20693;-70
2021/01/25 11:54:01;;;;;;;7.87;4.87;;;4.30;97.70;;;;;;5088803;28;20186;-70
2021/01/25 11:56:26;;;;;;;6.73;4.80;;;4.40;97.20;;;;;;5086342;28;20189;-70
2021/01/25 11:58:52;;;;;;;4.20;3.80;;;4.50;97.10;;;;;;5085004;28;20218;-70
2021/01/25 12:01:18;;;;;;;5.77;5.03;;;4.50;96.10;;;;;;5086811;28;20241;-70
2021/01/25 12:03:43;;;;;;;4.13;3.73;;;4.50;97.10;;;;;;5086341;28;20174;-71
2021/01/25 12:06:11;;;;;;;4.80;4.40;;;4.50;96.00;;;;;;5080377;28;20204;-69
2021/01/25 12:08:36;;;;;;;4.23;3.83;;;4.30;97.20;;;;;;5080368;28;20209;-69
2021/01/25 12:11:03;;;;;;;4.13;3.73;;;4.20;96.60;;;;;;5087754;28;20200;-69
2021/01/25 12:13:29;;;;;;;4.37;3.97;;;4.20;97.30;;;;;;5093926;28;20274;-70
2021/01/25 12:15:54;;;;;;;5.37;4.80;;;4.30;97.70;;;;;;5092601;28;20388;-71
2021/01/25 12:18:20;;;;;;;5.60;4.97;;;4.20;97.10;;;;;;5076999;28;20208;-69
2021/01/25 12:20:46;;;;;;;6.17;5.57;;;4.30;97.90;;;;;;5081517;28;20687;-69
2021/01/25 12:23:11;;;;;;;11.93;6.70;;;4.30;97.60;;;;;;5083968;28;20601;-69
2021/01/25 12:25:37;;;;;;;7.27;5.00;;;4.40;97.80;;;;;;5084881;28;20635;-70
2021/01/25 12:28:03;;;;;;;6.13;5.53;;;4.50;97.40;;;;;;5075233;28;20194;-71
2021/01/25 12:30:28;;;;;;;5.87;4.30;;;4.50;97.50;;;;;;5086192;28;20195;-70
2021/01/25 12:32:54;;;;;;;6.03;5.43;;;4.60;96.90;;;;;;5088007;28;20201;-70
2021/01/25 12:35:20;;;;;;;13.30;10.67;;;4.70;97.60;;;;;;5088687;28;20188;-70
2021/01/25 12:37:46;;;;;;;15.70;11.17;;;4.80;97.40;;;;;;5072742;28;20243;-69
2021/01/25 12:40:14;;;;;;;16.73;11.17;;;5.00;96.80;;;;;;5085443;28;20186;-70
2021/01/25 12:42:40;;;;;;;6.50;5.50;;;5.00;96.70;;;;;;5078586;28;20679;-69
2021/01/25 12:45:07;;;;;;;7.27;6.13;;;4.90;96.50;;;;;;5076922;28;20268;-69
2021/01/25 12:47:33;;;;;;;5.90;4.93;;;4.90;96.90;;;;;;5073943;28;20649;-70
2021/01/25 12:49:58;;;;;;;8.43;4.57;;;4.90;97.20;;;;;;5086915;28;20209;-69
2021/01/25 12:52:24;;;;;;;4.97;4.43;;;4.80;96.50;;;;;;5083530;28;20196;-69
2021/01/25 12:54:49;;;;;;;6.00;4.63;;;4.70;96.80;;;;;;5072321;28;20191;-68